sensor_id;sensor_type;location;lat;lon;timestamp;P1;durP1;ratioP1;P2;durP2;ratioP2
81894;SDS011;71358;45.642;13.758;2024-01-25T11:55:04;12.65;;;11.50;;
81894;SDS011;71358;45.642;13.758;2024-01-25T11:57:52;12.93;;;11.73;;
81894;SDS011;71358;45.642;13.758;2024-01-25T12:00:37;13.23;;;11.90;;
81894;SDS011;71358;45.642;13.758;2024-01-25T12:03:21;13.35;;;12.05;;
81894;SDS011;71358;45.642;13.758;2024-01-25T12:06:06;12.43;;;11.23;;
81894;SDS011;71358;45.642;13.758;2024-01-25T12:08:52;12.80;;;11.70;;
81894;SDS011;71358;45.642;13.758;2024-01-25T12:11:38;12.15;;;10.95;;
81894;SDS011;71358;45.642;13.758;2024-01-25T12:14:24;11.77;;;10.75;;
81894;SDS011;71358;45.642;13.758;2024-01-25T12:17:08;11.70;;;10.70;;
81894;SDS011;71358;45.642;13.758;2024-01-25T12:19:56;12.77;;;11.52;;
81894;SDS011;71358;45.642;13.758;2024-01-25T12:22:41;12.60;;;10.60;;
81894;SDS011;71358;45.642;13.758;2024-01-25T12:25:27;13.35;;;12.10;;
81894;SDS011;71358;45.642;13.758;2024-01-25T12:28:12;27.45;;;24.85;;
81894;SDS011;71358;45.642;13.758;2024-01-25T12:30:58;50.80;;;45.28;;
81894;SDS011;71358;45.642;13.758;2024-01-25T12:33:43;82.57;;;73.72;;
81894;SDS011;71358;45.642;13.758;2024-01-25T12:36:28;108.07;;;96.75;;
81894;SDS011;71358;45.642;13.758;2024-01-25T12:39:12;111.40;;;100.03;;
81894;SDS011;71358;45.642;13.758;2024-01-25T12:41:58;106.32;;;94.78;;
81894;SDS011;71358;45.642;13.758;2024-01-25T12:44:42;97.25;;;86.93;;
81894;SDS011;71358;45.642;13.758;2024-01-25T12:47:27;98.63;;;88.32;;
81894;SDS011;71358;45.642;13.758;2024-01-25T12:50:12;90.97;;;81.25;;
81894;SDS011;71358;45.642;13.758;2024-01-25T12:52:56;88.75;;;79.88;;
81894;SDS011;71358;45.642;13.758;2024-01-25T12:55:42;91.60;;;82.05;;
81894;SDS011;71358;45.642;13.758;2024-01-25T12:58:27;84.50;;;75.57;;
81894;SDS011;71358;45.642;13.758;2024-01-25T13:01:11;82.38;;;73.70;;
81894;SDS011;71358;45.642;13.758;2024-01-25T13:03:56;81.13;;;70.07;;
81894;SDS011;71358;45.642;13.758;2024-01-25T13:06:40;76.38;;;68.15;;
81894;SDS011;71358;45.642;13.758;2024-01-25T13:09:25;75.07;;;67.20;;
81894;SDS011;71358;45.642;13.758;2024-01-25T13:12:10;71.13;;;63.40;;
81894;SDS011;71358;45.642;13.758;2024-01-25T13:14:54;68.43;;;60.08;;
81894;SDS011;71358;45.642;13.758;2024-01-25T13:17:39;66.20;;;59.00;;
81894;SDS011;71358;45.642;13.758;2024-01-25T13:20:23;63.38;;;56.33;;
81894;SDS011;71358;45.642;13.758;2024-01-25T13:23:08;62.50;;;55.85;;
81894;SDS011;71358;45.642;13.758;2024-01-25T13:25:52;56.83;;;50.90;;
81894;SDS011;71358;45.642;13.758;2024-01-25T13:28:37;57.85;;;51.90;;
81894;SDS011;71358;45.642;13.758;2024-01-25T13:31:22;51.72;;;46.22;;
81894;SDS011;71358;45.642;13.758;2024-01-25T13:34:06;57.08;;;50.80;;
81894;SDS011;71358;45.642;13.758;2024-01-25T13:36:51;54.55;;;48.95;;
81894;SDS011;71358;45.642;13.758;2024-01-25T13:39:36;54.67;;;48.80;;
81894;SDS011;71358;45.642;13.758;2024-01-25T13:42:20;49.35;;;44.22;;
81894;SDS011;71358;45.642;13.758;2024-01-25T13:45:06;47.40;;;42.70;;
81894;SDS011;71358;45.642;13.758;2024-01-25T13:47:51;45.63;;;41.13;;
81894;SDS011;71358;45.642;13.758;2024-01-25T13:50:35;50.20;;;44.95;;
81894;SDS011;71358;45.642;13.758;2024-01-25T13:53:20;48.00;;;43.08;;
81894;SDS011;71358;45.642;13.758;2024-01-25T13:56:04;44.47;;;39.67;;
81894;SDS011;71358;45.642;13.758;2024-01-25T13:58:49;43.72;;;39.00;;
81894;SDS011;71358;45.642;13.758;2024-01-25T14:01:34;40.22;;;36.20;;
81894;SDS011;71358;45.642;13.758;2024-01-25T14:04:18;42.42;;;37.92;;
81894;SDS011;71358;45.642;13.758;2024-01-25T14:07:03;40.42;;;36.15;;
81894;SDS011;71358;45.642;13.758;2024-01-25T14:09:47;40.65;;;36.38;;
81894;SDS011;71358;45.642;13.758;2024-01-25T14:12:32;37.92;;;33.88;;
81894;SDS011;71358;45.642;13.758;2024-01-25T14:15:16;38.92;;;35.00;;
81894;SDS011;71358;45.642;13.758;2024-01-25T14:18:01;38.50;;;34.53;;
81894;SDS011;71358;45.642;13.758;2024-01-25T14:20:46;35.03;;;31.30;;
81894;SDS011;71358;45.642;13.758;2024-01-25T14:23:30;36.22;;;32.33;;
81894;SDS011;71358;45.642;13.758;2024-01-25T14:26:15;32.90;;;29.38;;
81894;SDS011;71358;45.642;13.758;2024-01-25T14:28:59;35.78;;;31.95;;
81894;SDS011;71358;45.642;13.758;2024-01-25T14:31:44;31.52;;;28.27;;
81894;SDS011;71358;45.642;13.758;2024-01-25T14:34:28;33.20;;;29.70;;
81894;SDS011;71358;45.642;13.758;2024-01-25T14:37:13;30.52;;;27.42;;
81894;SDS011;71358;45.642;13.758;2024-01-25T14:39:58;27.88;;;25.05;;
81894;SDS011;71358;45.642;13.758;2024-01-25T14:42:42;29.02;;;26.02;;
81894;SDS011;71358;45.642;13.758;2024-01-25T14:45:28;27.85;;;24.50;;
81894;SDS011;71358;45.642;13.758;2024-01-25T14:48:14;28.00;;;25.00;;
81894;SDS011;71358;45.642;13.758;2024-01-25T14:50:58;27.08;;;24.17;;
81894;SDS011;71358;45.642;13.758;2024-01-25T14:53:43;26.90;;;22.75;;
81894;SDS011;71358;45.642;13.758;2024-01-25T14:56:28;25.70;;;23.15;;
81894;SDS011;71358;45.642;13.758;2024-01-25T14:59:12;25.95;;;21.95;;
81894;SDS011;71358;45.642;13.758;2024-01-25T15:01:57;24.50;;;22.00;;
81894;SDS011;71358;45.642;13.758;2024-01-25T15:04:41;23.52;;;21.13;;
81894;SDS011;71358;45.642;13.758;2024-01-25T15:07:26;20.42;;;18.30;;
81894;SDS011;71358;45.642;13.758;2024-01-25T15:10:10;22.20;;;20.00;;
81894;SDS011;71358;45.642;13.758;2024-01-25T15:12:55;19.83;;;17.90;;
81894;SDS011;71358;45.642;13.758;2024-01-25T15:15:42;19.27;;;17.20;;
81894;SDS011;71358;45.642;13.758;2024-01-25T15:18:27;17.77;;;15.98;;
81894;SDS011;71358;45.642;13.758;2024-01-25T15:21:12;18.00;;;16.30;;
81894;SDS011;71358;45.642;13.758;2024-01-25T15:23:57;18.20;;;16.33;;
81894;SDS011;71358;45.642;13.758;2024-01-25T15:26:41;17.52;;;15.77;;
81894;SDS011;71358;45.642;13.758;2024-01-25T15:29:26;16.92;;;15.23;;
81894;SDS011;71358;45.642;13.758;2024-01-25T15:32:11;17.20;;;15.50;;
81894;SDS011;71358;45.642;13.758;2024-01-25T15:34:55;17.67;;;15.88;;
81894;SDS011;71358;45.642;13.758;2024-01-25T15:37:40;16.92;;;15.18;;
81894;SDS011;71358;45.642;13.758;2024-01-25T15:40:25;16.30;;;14.80;;
81894;SDS011;71358;45.642;13.758;2024-01-25T15:43:10;15.63;;;14.02;;
81894;SDS011;71358;45.642;13.758;2024-01-25T15:45:55;15.93;;;14.38;;
81894;SDS011;71358;45.642;13.758;2024-01-25T15:48:39;17.20;;;15.50;;
81894;SDS011;71358;45.642;13.758;2024-01-25T15:51:24;16.63;;;14.95;;
81894;SDS011;71358;45.642;13.758;2024-01-25T15:54:08;17.42;;;14.98;;
81894;SDS011;71358;45.642;13.758;2024-01-25T15:56:53;15.30;;;13.80;;
81894;SDS011;71358;45.642;13.758;2024-01-25T15:59:37;14.85;;;13.35;;
81894;SDS011;71358;45.642;13.758;2024-01-25T16:02:25;15.48;;;14.02;;
81894;SDS011;71358;45.642;13.758;2024-01-25T16:05:10;14.10;;;12.68;;
81894;SDS011;71358;45.642;13.758;2024-01-25T16:07:57;14.43;;;13.10;;
81894;SDS011;71358;45.642;13.758;2024-01-25T16:10:42;16.40;;;13.63;;
81894;SDS011;71358;45.642;13.758;2024-01-25T16:13:27;14.32;;;12.95;;
81894;SDS011;71358;45.642;13.758;2024-01-25T16:16:12;12.82;;;11.63;;
81894;SDS011;71358;45.642;13.758;2024-01-25T16:18:56;12.68;;;11.48;;
81894;SDS011;71358;45.642;13.758;2024-01-25T16:21:41;14.68;;;12.80;;
81894;SDS011;71358;45.642;13.758;2024-01-25T16:24:25;13.32;;;11.98;;
81894;SDS011;71358;45.642;13.758;2024-01-25T16:27:10;12.50;;;11.23;;
81894;SDS011;71358;45.642;13.758;2024-01-25T16:29:54;12.93;;;10.85;;
81894;SDS011;71358;45.642;13.758;2024-01-25T16:32:39;12.55;;;11.23;;
81894;SDS011;71358;45.642;13.758;2024-01-25T16:35:24;11.63;;;10.38;;
81894;SDS011;71358;45.642;13.758;2024-01-25T16:38:08;11.65;;;10.55;;
81894;SDS011;71358;45.642;13.758;2024-01-25T16:40:53;11.82;;;10.57;;
81894;SDS011;71358;45.642;13.758;2024-01-25T16:43:38;14.05;;;10.30;;
81894;SDS011;71358;45.642;13.758;2024-01-25T16:46:22;11.13;;;9.75;;
81894;SDS011;71358;45.642;13.758;2024-01-25T16:49:07;11.80;;;10.60;;
81894;SDS011;71358;45.642;13.758;2024-01-25T16:51:51;12.88;;;10.65;;
81894;SDS011;71358;45.642;13.758;2024-01-25T16:54:36;10.52;;;9.55;;
81894;SDS011;71358;45.642;13.758;2024-01-25T16:57:20;10.73;;;9.63;;
81894;SDS011;71358;45.642;13.758;2024-01-25T17:00:05;10.45;;;9.35;;
81894;SDS011;71358;45.642;13.758;2024-01-25T17:02:50;10.55;;;9.45;;
81894;SDS011;71358;45.642;13.758;2024-01-25T17:05:34;10.20;;;9.07;;
81894;SDS011;71358;45.642;13.758;2024-01-25T17:08:19;9.95;;;8.95;;
81894;SDS011;71358;45.642;13.758;2024-01-25T17:11:04;10.07;;;9.00;;
81894;SDS011;71358;45.642;13.758;2024-01-25T17:13:48;9.23;;;8.32;;
81894;SDS011;71358;45.642;13.758;2024-01-25T17:16:33;9.45;;;8.45;;
81894;SDS011;71358;45.642;13.758;2024-01-25T17:19:17;9.70;;;8.40;;
81894;SDS011;71358;45.642;13.758;2024-01-25T17:22:02;9.68;;;8.68;;
81894;SDS011;71358;45.642;13.758;2024-01-25T17:24:47;8.90;;;8.00;;
81894;SDS011;71358;45.642;13.758;2024-01-25T17:27:31;10.10;;;7.85;;
81894;SDS011;71358;45.642;13.758;2024-01-25T17:30:16;8.55;;;7.50;;
81894;SDS011;71358;45.642;13.758;2024-01-25T17:33:01;8.90;;;8.00;;
81894;SDS011;71358;45.642;13.758;2024-01-25T17:35:45;9.38;;;8.38;;
81894;SDS011;71358;45.642;13.758;2024-01-25T17:38:32;8.73;;;7.93;;
81894;SDS011;71358;45.642;13.758;2024-01-25T17:41:20;8.45;;;7.65;;
81894;SDS011;71358;45.642;13.758;2024-01-25T17:44:05;8.65;;;7.75;;
81894;SDS011;71358;45.642;13.758;2024-01-25T17:46:49;9.10;;;8.20;;
81894;SDS011;71358;45.642;13.758;2024-01-25T17:49:34;8.70;;;7.80;;
81894;SDS011;71358;45.642;13.758;2024-01-25T17:52:18;9.15;;;8.25;;
81894;SDS011;71358;45.642;13.758;2024-01-25T17:55:03;9.27;;;7.22;;
81894;SDS011;71358;45.642;13.758;2024-01-25T17:57:48;8.80;;;7.90;;
81894;SDS011;71358;45.642;13.758;2024-01-25T18:00:33;8.52;;;7.72;;
81894;SDS011;71358;45.642;13.758;2024-01-25T18:03:17;8.65;;;7.75;;
81894;SDS011;71358;45.642;13.758;2024-01-25T18:06:03;8.35;;;7.45;;
81894;SDS011;71358;45.642;13.758;2024-01-25T18:08:47;9.82;;;7.60;;
81894;SDS011;71358;45.642;13.758;2024-01-25T18:11:32;8.05;;;7.35;;
81894;SDS011;71358;45.642;13.758;2024-01-25T18:14:16;9.57;;;8.60;;
81894;SDS011;71358;45.642;13.758;2024-01-25T18:17:01;8.63;;;7.82;;
81894;SDS011;71358;45.642;13.758;2024-01-25T18:19:46;8.80;;;7.93;;
81894;SDS011;71358;45.642;13.758;2024-01-25T18:22:30;14.30;;;12.80;;
81894;SDS011;71358;45.642;13.758;2024-01-25T18:25:15;9.23;;;7.47;;
81894;SDS011;71358;45.642;13.758;2024-01-25T18:27:59;9.70;;;8.55;;
81894;SDS011;71358;45.642;13.758;2024-01-25T18:30:44;10.63;;;8.43;;
81894;SDS011;71358;45.642;13.758;2024-01-25T18:33:29;10.10;;;8.38;;
81894;SDS011;71358;45.642;13.758;2024-01-25T18:36:13;8.60;;;7.40;;
81894;SDS011;71358;45.642;13.758;2024-01-25T18:38:58;8.48;;;7.65;;
81894;SDS011;71358;45.642;13.758;2024-01-25T18:41:43;10.88;;;8.23;;
81894;SDS011;71358;45.642;13.758;2024-01-25T18:44:27;8.85;;;7.95;;
81894;SDS011;71358;45.642;13.758;2024-01-25T18:47:12;8.80;;;7.68;;
81894;SDS011;71358;45.642;13.758;2024-01-25T18:49:57;11.35;;;8.35;;
81894;SDS011;71358;45.642;13.758;2024-01-25T18:52:43;9.07;;;8.10;;
81894;SDS011;71358;45.642;13.758;2024-01-25T18:55:28;8.18;;;7.40;;
81894;SDS011;71358;45.642;13.758;2024-01-25T18:58:13;11.00;;;7.50;;
81894;SDS011;71358;45.642;13.758;2024-01-25T19:00:58;9.85;;;8.38;;
81894;SDS011;71358;45.642;13.758;2024-01-25T19:03:43;9.57;;;8.45;;
81894;SDS011;71358;45.642;13.758;2024-01-25T19:06:30;9.98;;;8.98;;
81894;SDS011;71358;45.642;13.758;2024-01-25T19:09:17;9.82;;;8.85;;
81894;SDS011;71358;45.642;13.758;2024-01-25T19:12:01;10.07;;;9.05;;
81894;SDS011;71358;45.642;13.758;2024-01-25T19:14:46;8.90;;;7.78;;
81894;SDS011;71358;45.642;13.758;2024-01-25T19:17:31;9.93;;;8.00;;
81894;SDS011;71358;45.642;13.758;2024-01-25T19:20:15;10.38;;;8.60;;
81894;SDS011;71358;45.642;13.758;2024-01-25T19:23:00;11.55;;;8.90;;
81894;SDS011;71358;45.642;13.758;2024-01-25T19:25:45;9.48;;;8.45;;
81894;SDS011;71358;45.642;13.758;2024-01-25T19:28:29;10.05;;;9.05;;
81894;SDS011;71358;45.642;13.758;2024-01-25T19:31:15;11.20;;;8.80;;
81894;SDS011;71358;45.642;13.758;2024-01-25T19:34:00;10.80;;;8.68;;
81894;SDS011;71358;45.642;13.758;2024-01-25T19:36:44;10.55;;;8.85;;
81894;SDS011;71358;45.642;13.758;2024-01-25T19:39:29;9.93;;;8.93;;
81894;SDS011;71358;45.642;13.758;2024-01-25T19:42:14;9.50;;;8.57;;
81894;SDS011;71358;45.642;13.758;2024-01-25T19:44:58;9.43;;;8.60;;
81894;SDS011;71358;45.642;13.758;2024-01-25T19:47:43;9.90;;;8.90;;
81894;SDS011;71358;45.642;13.758;2024-01-25T19:50:27;10.10;;;8.70;;
81894;SDS011;71358;45.642;13.758;2024-01-25T19:53:12;12.40;;;9.80;;
81894;SDS011;71358;45.642;13.758;2024-01-25T19:55:56;11.02;;;9.10;;
81894;SDS011;71358;45.642;13.758;2024-01-25T19:58:42;11.20;;;10.00;;
81894;SDS011;71358;45.642;13.758;2024-01-25T20:01:27;13.70;;;9.48;;
81894;SDS011;71358;45.642;13.758;2024-01-25T20:04:12;10.20;;;9.18;;
81894;SDS011;71358;45.642;13.758;2024-01-25T20:06:57;11.07;;;9.98;;
81894;SDS011;71358;45.642;13.758;2024-01-25T20:09:41;12.32;;;10.45;;
81894;SDS011;71358;45.642;13.758;2024-01-25T20:12:26;11.55;;;9.98;;
81894;SDS011;71358;45.642;13.758;2024-01-25T20:15:11;12.80;;;10.90;;
81894;SDS011;71358;45.642;13.758;2024-01-25T20:17:56;14.18;;;10.77;;
81894;SDS011;71358;45.642;13.758;2024-01-25T20:20:40;12.00;;;10.15;;
81894;SDS011;71358;45.642;13.758;2024-01-25T20:23:25;12.32;;;11.10;;
81894;SDS011;71358;45.642;13.758;2024-01-25T20:26:09;15.68;;;11.40;;
81894;SDS011;71358;45.642;13.758;2024-01-25T20:28:56;13.00;;;11.48;;
81894;SDS011;71358;45.642;13.758;2024-01-25T20:31:40;13.52;;;12.10;;
81894;SDS011;71358;45.642;13.758;2024-01-25T20:34:25;12.20;;;10.93;;
81894;SDS011;71358;45.642;13.758;2024-01-25T20:37:10;15.13;;;11.90;;
81894;SDS011;71358;45.642;13.758;2024-01-25T20:39:54;13.10;;;11.80;;
81894;SDS011;71358;45.642;13.758;2024-01-25T20:42:39;14.68;;;11.43;;
81894;SDS011;71358;45.642;13.758;2024-01-25T20:45:23;12.80;;;11.50;;
81894;SDS011;71358;45.642;13.758;2024-01-25T20:48:08;13.75;;;12.00;;
81894;SDS011;71358;45.642;13.758;2024-01-25T20:50:52;13.57;;;12.20;;
81894;SDS011;71358;45.642;13.758;2024-01-25T20:53:37;13.90;;;12.50;;
81894;SDS011;71358;45.642;13.758;2024-01-25T20:56:22;14.35;;;11.80;;
81894;SDS011;71358;45.642;13.758;2024-01-25T20:59:06;14.15;;;12.65;;
81894;SDS011;71358;45.642;13.758;2024-01-25T21:01:53;16.20;;;14.60;;
81894;SDS011;71358;45.642;13.758;2024-01-25T21:04:38;15.50;;;13.93;;
81894;SDS011;71358;45.642;13.758;2024-01-25T21:07:24;15.02;;;13.60;;
81894;SDS011;71358;45.642;13.758;2024-01-25T21:10:09;15.95;;;14.32;;
81894;SDS011;71358;45.642;13.758;2024-01-25T21:12:54;13.70;;;12.40;;
81894;SDS011;71358;45.642;13.758;2024-01-25T21:15:39;14.73;;;13.20;;
81894;SDS011;71358;45.642;13.758;2024-01-25T21:18:23;14.25;;;12.63;;
81894;SDS011;71358;45.642;13.758;2024-01-25T21:21:08;13.70;;;12.30;;
81894;SDS011;71358;45.642;13.758;2024-01-25T21:23:57;13.90;;;12.48;;
81894;SDS011;71358;45.642;13.758;2024-01-25T21:26:41;14.40;;;13.00;;
81894;SDS011;71358;45.642;13.758;2024-01-25T21:29:26;14.68;;;13.18;;
81894;SDS011;71358;45.642;13.758;2024-01-25T21:32:10;14.10;;;12.52;;
81894;SDS011;71358;45.642;13.758;2024-01-25T21:34:55;13.07;;;11.68;;
81894;SDS011;71358;45.642;13.758;2024-01-25T21:37:39;14.38;;;12.82;;
81894;SDS011;71358;45.642;13.758;2024-01-25T21:40:24;13.85;;;12.55;;
81894;SDS011;71358;45.642;13.758;2024-01-25T21:43:09;14.18;;;12.73;;
81894;SDS011;71358;45.642;13.758;2024-01-25T21:45:54;14.25;;;12.98;;
81894;SDS011;71358;45.642;13.758;2024-01-25T21:48:39;13.63;;;12.35;;
81894;SDS011;71358;45.642;13.758;2024-01-25T21:51:23;14.48;;;12.90;;
81894;SDS011;71358;45.642;13.758;2024-01-25T21:54:08;13.43;;;12.07;;
81894;SDS011;71358;45.642;13.758;2024-01-25T21:56:52;13.35;;;12.02;;
81894;SDS011;71358;45.642;13.758;2024-01-25T21:59:37;13.32;;;12.05;;
81894;SDS011;71358;45.642;13.758;2024-01-25T22:02:21;13.95;;;12.55;;
81894;SDS011;71358;45.642;13.758;2024-01-25T22:05:06;13.02;;;11.63;;
81894;SDS011;71358;45.642;13.758;2024-01-25T22:07:54;14.48;;;12.98;;
81894;SDS011;71358;45.642;13.758;2024-01-25T22:10:38;12.75;;;11.43;;
81894;SDS011;71358;45.642;13.758;2024-01-25T22:13:23;13.07;;;11.77;;
81894;SDS011;71358;45.642;13.758;2024-01-25T22:16:08;12.07;;;10.88;;
81894;SDS011;71358;45.642;13.758;2024-01-25T22:18:52;12.98;;;11.57;;
81894;SDS011;71358;45.642;13.758;2024-01-25T22:21:37;11.85;;;10.75;;
81894;SDS011;71358;45.642;13.758;2024-01-25T22:24:21;13.05;;;11.85;;
81894;SDS011;71358;45.642;13.758;2024-01-25T22:27:06;12.45;;;11.25;;
81894;SDS011;71358;45.642;13.758;2024-01-25T22:29:52;12.73;;;11.48;;
81894;SDS011;71358;45.642;13.758;2024-01-25T22:32:37;12.27;;;11.13;;
81894;SDS011;71358;45.642;13.758;2024-01-25T22:35:21;14.00;;;11.23;;
81894;SDS011;71358;45.642;13.758;2024-01-25T22:38:06;12.95;;;11.35;;
81894;SDS011;71358;45.642;13.758;2024-01-25T22:40:50;12.48;;;11.35;;
81894;SDS011;71358;45.642;13.758;2024-01-25T22:43:35;12.18;;;11.00;;
81894;SDS011;71358;45.642;13.758;2024-01-25T22:46:19;12.98;;;11.77;;
81894;SDS011;71358;45.642;13.758;2024-01-25T22:49:04;11.52;;;10.43;;
81894;SDS011;71358;45.642;13.758;2024-01-25T22:51:50;11.70;;;10.52;;
81894;SDS011;71358;45.642;13.758;2024-01-25T22:54:34;10.98;;;9.88;;
81894;SDS011;71358;45.642;13.758;2024-01-25T22:57:19;12.23;;;10.98;;
81894;SDS011;71358;45.642;13.758;2024-01-25T23:00:04;10.73;;;9.75;;
81894;SDS011;71358;45.642;13.758;2024-01-25T23:02:52;10.52;;;9.63;;
81894;SDS011;71358;45.642;13.758;2024-01-25T23:05:36;11.35;;;10.35;;
81894;SDS011;71358;45.642;13.758;2024-01-25T23:08:21;10.45;;;9.52;;
81894;SDS011;71358;45.642;13.758;2024-01-25T23:11:05;11.18;;;10.10;;
81894;SDS011;71358;45.642;13.758;2024-01-25T23:13:50;10.68;;;9.77;;
81894;SDS011;71358;45.642;13.758;2024-01-25T23:16:34;11.60;;;10.55;;
81894;SDS011;71358;45.642;13.758;2024-01-25T23:19:19;10.82;;;9.82;;
81894;SDS011;71358;45.642;13.758;2024-01-25T23:22:04;11.15;;;10.05;;
81894;SDS011;71358;45.642;13.758;2024-01-25T23:24:49;10.13;;;9.13;;
81894;SDS011;71358;45.642;13.758;2024-01-25T23:27:34;10.63;;;9.55;;
81894;SDS011;71358;45.642;13.758;2024-01-25T23:30:19;11.05;;;10.05;;
81894;SDS011;71358;45.642;13.758;2024-01-25T23:33:03;11.10;;;10.07;;
81894;SDS011;71358;45.642;13.758;2024-01-25T23:35:48;10.50;;;9.55;;
81894;SDS011;71358;45.642;13.758;2024-01-25T23:38:33;10.75;;;9.75;;
81894;SDS011;71358;45.642;13.758;2024-01-25T23:41:18;10.13;;;9.23;;
81894;SDS011;71358;45.642;13.758;2024-01-25T23:44:02;10.52;;;9.50;;
81894;SDS011;71358;45.642;13.758;2024-01-25T23:46:47;10.70;;;9.70;;
81894;SDS011;71358;45.642;13.758;2024-01-25T23:49:31;9.93;;;9.02;;
81894;SDS011;71358;45.642;13.758;2024-01-25T23:52:16;10.02;;;9.13;;
81894;SDS011;71358;45.642;13.758;2024-01-25T23:55:01;9.90;;;9.00;;
81894;SDS011;71358;45.642;13.758;2024-01-25T23:57:45;10.13;;;9.18;;
